Time;durP1;ratioP1;P1;durP2;ratioP2;P2;SDS_P1;SDS_P2;PMS_P1;PMS_P2;Temp;Humidity;BMP_temperature;BMP_pressure;BME280_temperature;BME280_humidity;BME280_pressure;Samples;Min_cycle;Max_cycle;Signal;HPM_P1;HPM_P2
2022/03/25 00:00:34;;;;;;;58.20;41.30;;;10.20;99.90;;;;;;4807746;29;20670;-82
2022/03/25 00:03:04;;;;;;;60.70;41.23;;;10.20;99.90;;;;;;4807968;29;20564;-81
2022/03/25 00:05:33;;;;;;;62.80;41.83;;;10.10;99.90;;;;;;4807903;29;20203;-85
2022/03/25 00:08:01;;;;;;;61.67;42.40;;;10.00;99.90;;;;;;4807755;29;20211;-80
2022/03/25 00:10:30;;;;;;;59.87;42.30;;;10.00;99.90;;;;;;4807848;29;20238;-87
2022/03/25 00:12:56;;;;;;;58.70;40.83;;;9.90;99.90;;;;;;4807573;29;20282;-82
2022/03/25 00:15:24;;;;;;;65.38;49.90;;;9.80;99.90;;;;;;4806451;29;20462;-84
2022/03/25 00:17:53;;;;;;;61.23;42.83;;;9.90;99.90;;;;;;4807554;29;20215;-82
2022/03/25 00:20:22;;;;;;;63.03;43.13;;;9.90;99.90;;;;;;4807392;29;20576;-82
2022/03/25 00:22:52;;;;;;;59.27;41.97;;;9.80;99.90;;;;;;4807654;29;20222;-81
2022/03/25 00:25:19;;;;;;;69.07;43.77;;;9.90;99.90;;;;;;4807295;29;20229;-79
2022/03/25 00:27:46;;;;;;;64.43;42.23;;;9.90;99.90;;;;;;4806861;29;20227;-84
2022/03/25 00:30:13;;;;;;;66.57;42.60;;;9.90;99.90;;;;;;4806523;29;20223;-81
2022/03/25 00:32:40;;;;;;;65.60;43.17;;;9.80;99.90;;;;;;4806819;29;20215;-81
2022/03/25 00:35:08;;;;;;;70.20;43.37;;;9.80;99.90;;;;;;4807046;29;20215;-82
2022/03/25 00:37:35;;;;;;;68.97;43.70;;;9.80;99.90;;;;;;4807115;29;20553;-80
2022/03/25 00:40:04;;;;;;;69.68;53.63;;;9.90;99.90;;;;;;4805699;29;20493;-83
2022/03/25 00:42:31;;;;;;;65.97;45.43;;;9.90;99.90;;;;;;4807112;29;20206;-85
2022/03/25 00:45:01;;;;;;;58.70;43.10;;;9.80;99.90;;;;;;4806868;29;20222;-84
2022/03/25 00:47:36;;;;;;;71.30;45.43;;;9.70;99.90;;;;;;4806973;29;20211;-83
2022/03/25 00:50:03;;;;;;;59.37;42.83;;;9.70;99.90;;;;;;4807060;29;20318;-86
2022/03/25 00:52:30;;;;;;;68.07;44.80;;;9.70;99.90;;;;;;4806869;29;20241;-83
2022/03/25 00:54:58;;;;;;;66.47;44.03;;;9.70;99.90;;;;;;4807148;29;20203;-84
2022/03/25 00:57:27;;;;;;;71.80;44.77;;;9.70;99.90;;;;;;4806704;29;20218;-83
2022/03/25 00:59:55;;;;;;;65.60;43.60;;;9.80;99.90;;;;;;4806962;29;20247;-86
2022/03/25 01:02:22;;;;;;;71.77;45.60;;;9.80;99.90;;;;;;4807081;29;20215;-83
2022/03/25 01:04:52;;;;;;;71.87;46.30;;;9.70;99.90;;;;;;4807118;29;20206;-80
2022/03/25 01:07:19;;;;;;;71.93;46.80;;;9.70;99.90;;;;;;4806436;29;20207;-82
2022/03/25 01:09:47;;;;;;;69.07;43.67;;;9.20;99.90;;;;;;4805994;29;20234;-83
2022/03/25 01:12:19;;;;;;;71.77;46.17;;;9.30;99.90;;;;;;4806600;29;20228;-80
2022/03/25 01:14:49;;;;;;;67.33;45.77;;;9.30;99.90;;;;;;4806873;29;20199;-80
2022/03/25 01:17:19;;;;;;;73.20;47.50;;;9.30;99.90;;;;;;4822166;29;20271;-84
2022/03/25 01:19:46;;;;;;;73.00;47.50;;;9.30;99.90;;;;;;4824489;29;20194;-82
2022/03/25 01:22:15;;;;;;;72.30;46.13;;;9.40;99.90;;;;;;4824676;29;20726;-85
2022/03/25 01:24:43;;;;;;;74.97;48.73;;;9.40;99.90;;;;;;4824943;29;20206;-81
2022/03/25 01:27:14;;;;;;;77.57;57.45;;;9.30;99.90;;;;;;4823729;29;20537;-84
2022/03/25 01:29:43;;;;;;;67.87;48.37;;;9.40;99.90;;;;;;4824057;29;20691;-87
2022/03/25 01:32:12;;;;;;;74.33;48.00;;;9.30;99.90;;;;;;4825214;29;20198;-79
2022/03/25 01:34:44;;;;;;;70.93;47.67;;;9.20;99.90;;;;;;4824973;29;20221;-86
2022/03/25 01:37:12;;;;;;;72.30;46.83;;;9.30;99.90;;;;;;4824394;29;20211;-85
2022/03/25 01:39:39;;;;;;;77.80;48.30;;;9.20;99.90;;;;;;4824625;29;20274;-84
2022/03/25 01:42:06;;;;;;;74.30;47.60;;;9.20;99.90;;;;;;4825026;29;20693;-84
2022/03/25 01:44:33;;;;;;;75.93;48.27;;;9.20;99.90;;;;;;4823722;29;20206;-78
2022/03/25 01:47:01;;;;;;;78.27;49.17;;;9.10;99.90;;;;;;4824468;29;20240;-79
2022/03/25 01:49:29;;;;;;;74.07;49.33;;;9.10;99.90;;;;;;4824274;29;20287;-78
2022/03/25 01:52:00;;;;;;;74.87;49.63;;;9.00;99.90;;;;;;4825052;29;20236;-82
2022/03/25 01:54:29;;;;;;;75.17;48.47;;;9.10;99.90;;;;;;4826641;29;20743;-85
2022/03/25 01:56:58;;;;;;;75.07;49.40;;;9.00;99.90;;;;;;4827892;29;20199;-83
2022/03/25 01:59:27;;;;;;;78.90;49.57;;;9.00;99.90;;;;;;4828009;29;20673;-84
2022/03/25 02:01:55;;;;;;;76.23;50.57;;;9.00;99.90;;;;;;4828300;29;20205;-82
2022/03/25 02:04:21;;;;;;;80.20;49.93;;;9.00;99.90;;;;;;4827535;29;20271;-80
2022/03/25 02:06:50;;;;;;;82.13;48.50;;;9.00;99.90;;;;;;4827661;29;20619;-78
2022/03/25 02:09:17;;;;;;;77.10;49.57;;;9.00;99.90;;;;;;4827771;29;20241;-81
2022/03/25 02:11:46;;;;;;;76.60;49.67;;;9.10;99.90;;;;;;4827499;29;20214;-82
2022/03/25 02:14:13;;;;;;;79.30;50.53;;;8.90;99.90;;;;;;4827837;29;20191;-79
2022/03/25 02:16:42;;;;;;;87.00;51.57;;;8.80;99.90;;;;;;4827731;29;20206;-77
2022/03/25 02:19:13;;;;;;;82.17;51.77;;;8.70;99.90;;;;;;4827857;29;20222;-79
2022/03/25 02:21:44;;;;;;;78.13;52.53;;;8.70;99.90;;;;;;4827775;29;20562;-80
2022/03/25 02:24:12;;;;;;;80.10;51.20;;;8.80;99.90;;;;;;4827880;29;20249;-82
2022/03/25 02:26:40;;;;;;;84.27;51.50;;;8.60;99.90;;;;;;4827136;29;20663;-78
2022/03/25 02:29:08;;;;;;;80.87;50.87;;;8.50;99.90;;;;;;4827742;29;20222;-81
2022/03/25 02:31:35;;;;;;;81.83;51.80;;;8.50;99.90;;;;;;4827434;29;20217;-80
2022/03/25 02:34:05;;;;;;;75.83;50.70;;;8.40;99.90;;;;;;4827624;29;20211;-79
2022/03/25 02:36:36;;;;;;;82.77;50.67;;;8.40;99.90;;;;;;4827124;29;20218;-84
2022/03/25 02:39:04;;;;;;;88.32;65.25;;;8.30;99.90;;;;;;4826185;29;20455;-85
2022/03/25 02:41:31;;;;;;;85.53;54.10;;;8.40;99.90;;;;;;4826829;29;20205;-83
2022/03/25 02:43:59;;;;;;;81.17;54.17;;;8.30;99.90;;;;;;4827515;29;20214;-82
2022/03/25 02:46:26;;;;;;;80.07;52.93;;;8.30;99.90;;;;;;4827307;29;20222;-83
2022/03/25 02:48:52;;;;;;;83.47;50.03;;;8.40;99.90;;;;;;4827353;29;20307;-81
2022/03/25 02:51:20;;;;;;;89.50;54.07;;;8.40;99.90;;;;;;4827026;29;20289;-81
2022/03/25 02:53:46;;;;;;;89.53;54.10;;;8.40;99.90;;;;;;4826845;29;20211;-82
2022/03/25 02:56:17;;;;;;;78.40;50.40;;;8.40;99.90;;;;;;4826422;29;20663;-84
2022/03/25 02:58:44;;;;;;;88.47;52.53;;;8.40;99.90;;;;;;4826825;29;20213;-83
2022/03/25 03:01:12;;;;;;;85.32;51.45;;;8.50;99.90;;;;;;4827132;29;20134;-84
2022/03/25 03:03:40;;;;;;;87.57;54.43;;;8.50;99.90;;;;;;4826841;29;20211;-80
2022/03/25 03:06:07;;;;;;;82.07;53.97;;;8.60;99.90;;;;;;4826817;29;20210;-85
2022/03/25 03:08:37;;;;;;;87.30;54.10;;;8.50;99.90;;;;;;4826589;29;20671;-86
2022/03/25 03:11:08;;;;;;;83.47;54.70;;;8.40;99.90;;;;;;4826508;29;20775;-84
2022/03/25 03:13:36;;;;;;;94.27;55.87;;;8.20;99.90;;;;;;4827136;29;20236;-78
2022/03/25 03:16:03;;;;;;;88.93;55.57;;;8.20;99.90;;;;;;4827097;29;20671;-80
2022/03/25 03:18:30;;;;;;;95.07;55.30;;;8.30;99.90;;;;;;4826534;29;20214;-82
2022/03/25 03:20:58;;;;;;;86.07;54.23;;;8.20;99.90;;;;;;4826406;29;20210;-80
2022/03/25 03:23:26;;;;;;;88.00;54.70;;;8.20;99.90;;;;;;4826652;29;20633;-82
2022/03/25 03:25:53;;;;;;;94.27;56.17;;;8.00;99.90;;;;;;4826323;29;20217;-85
2022/03/25 03:28:26;;;;;;;87.27;54.17;;;7.80;99.90;;;;;;4826634;29;20202;-81
2022/03/25 03:30:55;;;;;;;85.03;54.87;;;7.90;99.90;;;;;;4826282;29;20385;-79
2022/03/25 03:33:24;;;;;;;88.97;54.83;;;7.90;99.90;;;;;;4826608;29;20256;-83
2022/03/25 03:35:51;;;;;;;86.37;53.87;;;7.90;99.90;;;;;;4825921;29;20211;-84
2022/03/25 03:38:18;;;;;;;83.90;53.23;;;7.90;99.90;;;;;;4825886;29;20211;-81
2022/03/25 03:40:45;;;;;;;94.23;53.97;;;7.90;99.90;;;;;;4826471;29;20222;-84
2022/03/25 03:43:12;;;;;;;93.53;56.53;;;7.80;99.90;;;;;;4826463;29;20195;-83
2022/03/25 03:45:40;;;;;;;86.77;55.63;;;7.80;99.90;;;;;;4825913;29;20219;-84
2022/03/25 03:48:08;;;;;;;93.73;56.03;;;7.80;99.90;;;;;;4825778;29;20214;-80
2022/03/25 03:50:35;;;;;;;90.97;54.13;;;7.80;99.90;;;;;;4826074;29;20244;-83
2022/03/25 03:53:03;;;;;;;91.90;56.73;;;7.90;99.90;;;;;;4826485;29;20572;-82
2022/03/25 03:55:31;;;;;;;93.07;57.30;;;7.90;99.90;;;;;;4826370;29;20221;-80
2022/03/25 03:57:58;;;;;;;98.73;56.40;;;7.90;99.90;;;;;;4826641;29;20194;-81
2022/03/25 04:00:26;;;;;;;92.37;56.10;;;7.90;99.90;;;;;;4826692;29;20198;-78
2022/03/25 04:02:55;;;;;;;94.43;56.70;;;7.90;99.90;;;;;;4826423;29;20574;-87
2022/03/25 04:05:25;;;;;;;91.57;56.77;;;7.80;99.90;;;;;;4826211;29;20232;-80
2022/03/25 04:07:53;;;;;;;97.93;55.57;;;7.80;99.90;;;;;;4825910;29;20210;-85
2022/03/25 04:10:21;;;;;;;91.70;56.73;;;7.60;99.90;;;;;;4824805;29;20390;-85
2022/03/25 04:12:49;;;;;;;89.23;55.20;;;7.60;99.90;;;;;;4825655;29;20203;-85
2022/03/25 04:15:15;;;;;;;87.43;52.77;;;7.60;99.90;;;;;;4825863;29;20546;-80
2022/03/25 04:17:44;;;;;;;90.27;54.83;;;7.60;99.90;;;;;;4825727;29;20211;-80
2022/03/25 04:20:13;;;;;;;88.23;54.10;;;7.60;99.90;;;;;;4826187;29;20214;-86
2022/03/25 04:22:41;;;;;;;87.23;51.77;;;7.50;99.90;;;;;;4827159;29;20198;-77
2022/03/25 04:25:10;;;;;;;83.87;51.53;;;7.50;99.90;;;;;;4827776;29;20207;-82
2022/03/25 04:27:47;;;;;;;89.40;53.47;;;7.40;99.90;;;;;;4827055;29;20211;-80
2022/03/25 04:30:18;;;;;;;81.83;50.80;;;7.60;99.90;;;;;;4828456;29;20233;-82
2022/03/25 04:32:45;;;;;;;86.73;51.27;;;7.50;99.90;;;;;;4828894;29;20214;-78
2022/03/25 04:35:11;;;;;;;89.30;53.87;;;7.50;99.90;;;;;;4828315;29;20210;-78
2022/03/25 04:37:41;;;;;;;89.80;63.25;;;7.50;99.90;;;;;;4827415;29;20467;-86
2022/03/25 04:40:09;;;;;;;88.07;54.27;;;7.50;99.90;;;;;;4828639;29;20302;-76
2022/03/25 04:42:36;;;;;;;84.67;52.17;;;7.60;99.90;;;;;;4828247;29;20202;-82
2022/03/25 04:45:03;;;;;;;81.20;51.47;;;7.50;99.90;;;;;;4829337;29;20274;-78
2022/03/25 04:47:30;;;;;;;84.20;51.23;;;7.50;99.90;;;;;;4828386;29;20218;-78
2022/03/25 04:49:57;;;;;;;84.97;50.87;;;7.40;99.90;;;;;;4827487;29;20217;-75
2022/03/25 04:52:24;;;;;;;88.60;51.77;;;7.30;99.90;;;;;;4826277;29;20706;-76
2022/03/25 04:54:52;;;;;;;84.07;49.60;;;7.30;99.90;;;;;;4826653;29;20222;-76
2022/03/25 04:57:20;;;;;;;83.03;51.03;;;7.20;99.90;;;;;;4826867;29;20210;-76
2022/03/25 04:59:47;;;;;;;84.63;51.43;;;7.20;99.90;;;;;;4825890;29;20218;-78
2022/03/25 05:02:14;;;;;;;89.88;64.93;;;7.10;99.90;;;;;;4825169;29;20452;-82
2022/03/25 05:04:41;;;;;;;90.87;54.40;;;7.30;99.90;;;;;;4827304;29;20206;-77
2022/03/25 05:07:13;;;;;;;89.43;53.70;;;7.30;99.90;;;;;;4824973;29;20214;-78
2022/03/25 05:09:46;;;;;;;81.73;51.33;;;7.30;99.90;;;;;;4826070;29;20203;-86
2022/03/25 05:12:20;;;;;;;85.00;50.63;;;7.00;99.90;;;;;;4826101;29;20221;-84
2022/03/25 05:14:47;;;;;;;84.30;51.97;;;7.10;99.90;;;;;;4825704;29;20226;-87
2022/03/25 05:17:13;;;;;;;86.63;52.20;;;7.10;99.90;;;;;;4825963;29;20202;-84
2022/03/25 05:19:42;;;;;;;92.67;53.30;;;7.10;99.90;;;;;;4826015;29;20215;-78
2022/03/25 05:22:09;;;;;;;90.67;53.37;;;6.90;99.90;;;;;;4826508;29;20218;-78
2022/03/25 05:24:36;;;;;;;93.95;57.72;;;7.00;99.90;;;;;;4824129;29;20491;-76
2022/03/25 05:27:04;;;;;;;94.50;54.80;;;6.90;99.90;;;;;;4824639;29;20221;-76
2022/03/25 05:29:32;;;;;;;87.50;54.27;;;6.90;99.90;;;;;;4824701;29;20739;-78
2022/03/25 05:31:59;;;;;;;91.43;56.23;;;7.00;99.90;;;;;;4824066;29;20234;-81
2022/03/25 05:34:27;;;;;;;86.60;52.77;;;7.00;99.90;;;;;;4824192;29;20225;-76
2022/03/25 05:36:54;;;;;;;88.37;55.03;;;7.00;99.90;;;;;;4824590;29;20214;-76
2022/03/25 05:39:22;;;;;;;83.83;52.80;;;6.90;99.90;;;;;;4823880;29;20210;-76
2022/03/25 05:41:48;;;;;;;95.10;56.03;;;6.80;99.90;;;;;;4824265;29;20574;-76
2022/03/25 05:44:15;;;;;;;93.60;53.20;;;6.80;99.90;;;;;;4824335;29;20218;-76
2022/03/25 05:46:43;;;;;;;89.53;53.67;;;6.80;99.90;;;;;;4824210;29;20225;-77
2022/03/25 05:49:10;;;;;;;95.72;63.95;;;6.80;99.90;;;;;;4823775;29;20459;-79
2022/03/25 05:51:37;;;;;;;85.10;54.10;;;6.80;99.90;;;;;;4823963;29;20242;-75
2022/03/25 05:54:04;;;;;;;91.30;54.90;;;6.80;99.90;;;;;;4824753;29;20598;-76
2022/03/25 05:56:31;;;;;;;88.20;53.90;;;6.90;99.90;;;;;;4824363;29;20573;-78
2022/03/25 05:58:58;;;;;;;86.27;53.27;;;6.80;99.90;;;;;;4823801;29;20666;-76
2022/03/25 06:01:25;;;;;;;93.97;53.97;;;6.80;99.90;;;;;;4816733;29;20216;-76
2022/03/25 06:03:53;;;;;;;90.60;53.73;;;6.90;99.90;;;;;;4823851;29;20222;-78
2022/03/25 06:06:20;;;;;;;88.50;53.90;;;6.90;99.90;;;;;;4823095;29;20218;-77
2022/03/25 06:08:47;;;;;;;89.93;54.10;;;6.80;99.90;;;;;;4823564;29;20671;-77
2022/03/25 06:11:13;;;;;;;95.20;53.97;;;6.70;99.90;;;;;;4824163;29;20242;-78
2022/03/25 06:13:40;;;;;;;93.75;67.38;;;6.70;99.90;;;;;;4823157;29;20438;-76
2022/03/25 06:16:07;;;;;;;87.80;55.13;;;6.80;99.90;;;;;;4824061;29;20293;-77
2022/03/25 06:18:34;;;;;;;88.37;53.00;;;7.00;99.90;;;;;;4823585;29;20211;-79
2022/03/25 06:21:02;;;;;;;98.53;55.80;;;7.10;99.90;;;;;;4823922;29;20218;-76
2022/03/25 06:23:29;;;;;;;91.13;51.93;;;7.00;99.90;;;;;;4824644;29;20206;-81
2022/03/25 06:25:58;;;;;;;86.73;50.93;;;7.00;99.90;;;;;;4824177;29;20225;-76
2022/03/25 06:28:26;;;;;;;101.43;53.23;;;7.00;99.90;;;;;;4825339;29;20207;-76
2022/03/25 06:30:52;;;;;;;89.47;53.30;;;7.00;99.90;;;;;;4824698;29;20227;-75
2022/03/25 06:33:19;;;;;;;94.07;52.57;;;7.10;99.90;;;;;;4824371;29;20214;-77
2022/03/25 06:35:46;;;;;;;93.83;51.70;;;7.20;99.90;;;;;;4824252;29;20219;-76
2022/03/25 06:38:15;;;;;;;84.77;48.93;;;7.30;99.90;;;;;;4824108;29;20218;-76
2022/03/25 06:40:42;;;;;;;88.97;50.83;;;7.40;99.90;;;;;;4827050;29;20241;-76
2022/03/25 06:43:09;;;;;;;89.23;48.87;;;7.50;99.90;;;;;;4827453;29;20214;-76
2022/03/25 06:45:36;;;;;;;82.50;48.40;;;7.50;99.90;;;;;;4827246;29;20222;-78
2022/03/25 06:48:03;;;;;;;89.13;50.00;;;7.50;99.90;;;;;;4827234;29;20587;-76
2022/03/25 06:50:31;;;;;;;87.27;50.33;;;7.60;99.90;;;;;;4827309;29;20287;-76
2022/03/25 06:53:01;;;;;;;85.03;49.20;;;7.50;99.90;;;;;;4827135;29;20234;-76
2022/03/25 06:55:30;;;;;;;86.03;47.63;;;7.60;99.90;;;;;;4827193;29;20276;-77
2022/03/25 06:57:57;;;;;;;76.73;48.53;;;7.70;99.90;;;;;;4827692;29;20570;-76
2022/03/25 07:00:25;;;;;;;88.67;49.83;;;7.60;99.90;;;;;;4826810;29;20596;-75
2022/03/25 07:02:52;;;;;;;76.27;47.00;;;7.80;99.90;;;;;;4827007;29;20351;-77
2022/03/25 07:05:21;;;;;;;80.20;46.80;;;7.80;99.90;;;;;;4827149;29;20203;-77
2022/03/25 07:07:48;;;;;;;76.23;45.20;;;7.80;99.90;;;;;;4827010;29;20211;-78
2022/03/25 07:10:19;;;;;;;75.47;44.57;;;7.80;99.90;;;;;;4826658;29;20206;-77
2022/03/25 07:12:48;;;;;;;71.03;43.47;;;7.90;99.90;;;;;;4827130;29;20244;-76
2022/03/25 07:15:15;;;;;;;72.53;44.03;;;7.90;99.90;;;;;;4827032;29;20218;-76
2022/03/25 07:17:43;;;;;;;67.87;43.13;;;8.10;99.90;;;;;;4825987;29;20314;-82
2022/03/25 07:20:13;;;;;;;75.00;42.00;;;8.10;99.90;;;;;;4826525;29;20222;-76
2022/03/25 07:22:40;;;;;;;69.87;44.20;;;8.20;99.90;;;;;;4826149;29;20302;-78
2022/03/25 07:25:08;;;;;;;73.13;43.47;;;8.30;99.90;;;;;;4826690;29;20218;-78
2022/03/25 07:27:35;;;;;;;73.20;42.67;;;8.40;99.90;;;;;;4825995;29;20701;-76
2022/03/25 07:30:04;;;;;;;74.27;41.37;;;8.40;99.90;;;;;;4826706;29;20210;-76
2022/03/25 07:32:31;;;;;;;67.93;42.07;;;8.40;99.90;;;;;;4825917;29;20234;-76
2022/03/25 07:34:59;;;;;;;66.40;41.03;;;8.50;99.90;;;;;;4826251;29;20222;-85
2022/03/25 07:37:26;;;;;;;71.00;41.83;;;8.60;99.90;;;;;;4826390;29;20646;-78
2022/03/25 07:39:53;;;;;;;63.10;38.60;;;8.60;99.90;;;;;;4826268;29;20298;-75
2022/03/25 07:42:20;;;;;;;61.43;39.23;;;8.70;99.90;;;;;;4826137;29;20204;-76
2022/03/25 07:44:47;;;;;;;60.80;38.33;;;8.80;99.90;;;;;;4825722;29;20230;-77
2022/03/25 07:47:15;;;;;;;59.37;38.33;;;8.90;99.90;;;;;;4825573;29;20272;-83
2022/03/25 07:49:43;;;;;;;67.38;48.78;;;8.90;99.90;;;;;;4824023;29;20444;-76
2022/03/25 07:52:11;;;;;;;67.80;40.27;;;9.30;99.90;;;;;;4824805;29;20329;-76
2022/03/25 07:54:40;;;;;;;63.57;39.20;;;9.30;99.90;;;;;;4826250;29;20271;-82
2022/03/25 07:57:07;;;;;;;59.63;39.13;;;9.30;99.90;;;;;;4825458;29;20366;-78
2022/03/25 07:59:37;;;;;;;62.27;37.93;;;9.30;99.90;;;;;;4828509;29;20199;-88
2022/03/25 08:02:05;;;;;;;69.43;39.23;;;9.40;99.90;;;;;;4826223;29;20207;-89
2022/03/25 08:04:36;;;;;;;59.07;38.00;;;9.50;99.90;;;;;;4827177;29;20201;-90
2022/03/25 08:07:06;;;;;;;60.77;39.73;;;9.60;99.90;;;;;;4809782;29;20630;-88
2022/03/25 08:09:44;;;;;;;68.93;40.53;;;9.70;99.90;;;;;;4821655;29;20199;-91
2022/03/25 08:12:11;;;;;;;67.28;41.88;;;9.60;99.90;;;;;;4824146;29;20790;-88
2022/03/25 08:14:39;;;;;;;67.00;39.33;;;9.70;99.90;;;;;;4826307;29;20228;-89
2022/03/25 08:17:08;;;;;;;67.40;40.70;;;9.80;99.90;;;;;;4825372;29;20227;-90
2022/03/25 08:19:36;;;;;;;59.77;39.33;;;9.90;99.90;;;;;;4825531;29;20233;-74
2022/03/25 08:22:03;;;;;;;66.30;39.80;;;9.90;99.90;;;;;;4825465;29;20218;-75
2022/03/25 08:29:57;;;;;;;60.43;36.87;;;10.20;99.90;;;;;;4821356;29;20335;-76
2022/03/25 08:32:24;;;;;;;66.33;37.97;;;10.30;99.90;;;;;;4825427;29;20249;-85
2022/03/25 08:34:52;;;;;;;59.93;37.73;;;10.40;99.90;;;;;;4825421;29;20246;-84
2022/03/25 08:37:19;;;;;;;62.13;39.47;;;10.50;99.90;;;;;;4825079;29;20214;-75
2022/03/25 08:39:46;;;;;;;63.13;38.83;;;10.60;99.90;;;;;;4825416;29;20206;-81
2022/03/25 08:42:13;;;;;;;66.93;39.67;;;10.80;99.90;;;;;;4825263;29;20210;-75
2022/03/25 08:44:40;;;;;;;62.33;38.37;;;10.90;99.90;;;;;;4824153;29;20253;-75
2022/03/25 08:47:07;;;;;;;66.13;37.90;;;10.90;99.90;;;;;;4823947;29;20675;-75
2022/03/25 08:49:34;;;;;;;61.57;36.37;;;11.00;99.90;;;;;;4823749;29;20218;-77
2022/03/25 08:52:03;;;;;;;59.60;37.20;;;11.00;99.90;;;;;;4823018;29;20337;-74
2022/03/25 08:54:29;;;;;;;61.37;38.13;;;11.20;99.90;;;;;;4824431;29;20214;-86
2022/03/25 08:56:57;;;;;;;61.27;36.43;;;11.50;99.90;;;;;;4824174;29;20206;-76
2022/03/25 08:59:24;;;;;;;53.07;35.50;;;11.80;99.90;;;;;;4823766;29;20270;-75
2022/03/25 09:01:51;;;;;;;57.90;36.80;;;12.10;99.90;;;;;;4824416;29;20206;-83
2022/03/25 09:04:17;;;;;;;56.50;35.57;;;12.20;99.90;;;;;;4824665;29;20199;-74
2022/03/25 09:06:44;;;;;;;58.93;36.07;;;12.20;99.90;;;;;;4824175;29;20230;-77
2022/03/25 09:09:12;;;;;;;52.93;34.83;;;12.20;99.90;;;;;;4824408;29;20219;-75
2022/03/25 09:11:40;;;;;;;57.53;35.23;;;12.30;99.90;;;;;;4824450;29;20242;-73
2022/03/25 09:14:07;;;;;;;48.07;33.03;;;12.20;99.90;;;;;;4824005;29;20274;-76
2022/03/25 09:16:34;;;;;;;45.40;31.20;;;12.50;99.90;;;;;;4824148;29;20204;-75
2022/03/25 09:19:02;;;;;;;47.07;29.03;;;12.60;99.90;;;;;;4825006;29;20238;-76
2022/03/25 09:21:35;;;;;;;47.90;30.07;;;12.80;99.90;;;;;;4826145;29;20211;-86
2022/03/25 09:24:02;;;;;;;46.67;32.70;;;12.90;99.90;;;;;;4819893;29;20455;-77
2022/03/25 09:26:31;;;;;;;44.87;29.37;;;13.00;99.90;;;;;;4822871;29;20214;-79
2022/03/25 09:28:58;;;;;;;44.40;30.50;;;12.80;99.90;;;;;;4823009;29;20244;-78
2022/03/25 09:31:24;;;;;;;42.57;28.97;;;13.00;99.90;;;;;;4824905;29;20223;-78
2022/03/25 09:35:08;;;;;;;43.93;30.20;;;13.00;99.90;;;;;;4824149;29;20312;-78
2022/03/25 09:36:38;;;;;;;37.27;27.30;;;13.00;99.90;;;;;;4824202;29;20234;-76
2022/03/25 09:39:05;;;;;;;44.40;27.60;;;12.90;99.90;;;;;;4823953;29;20211;-76
2022/03/25 09:41:34;;;;;;;44.70;29.10;;;13.00;99.90;;;;;;4824029;29;20563;-75
2022/03/25 09:44:01;;;;;;;39.30;27.20;;;13.20;99.90;;;;;;4824159;29;20216;-77
2022/03/25 09:46:27;;;;;;;41.17;27.23;;;13.30;99.90;;;;;;4823925;29;20593;-76
2022/03/25 09:48:54;;;;;;;48.67;33.10;;;13.30;99.90;;;;;;4823548;29;20450;-77
2022/03/25 09:51:21;;;;;;;41.87;28.57;;;13.50;99.90;;;;;;4824183;29;20240;-75
2022/03/25 09:53:48;;;;;;;47.10;27.43;;;13.60;99.90;;;;;;4824183;29;20218;-82
2022/03/25 09:56:16;;;;;;;35.37;24.93;;;13.70;99.90;;;;;;4824024;29;20208;-79
2022/03/25 09:58:44;;;;;;;37.23;25.20;;;13.70;99.90;;;;;;4824035;29;20202;-79
2022/03/25 10:01:10;;;;;;;40.63;23.90;;;13.60;99.90;;;;;;4823765;29;20231;-78
2022/03/25 10:03:40;;;;;;;33.70;21.80;;;13.70;99.90;;;;;;4824078;29;20232;-80
2022/03/25 10:06:11;;;;;;;35.33;22.53;;;13.60;99.90;;;;;;4823873;29;20200;-81
2022/03/25 10:08:39;;;;;;;31.63;20.53;;;13.50;99.90;;;;;;4823926;29;20296;-79
2022/03/25 10:11:20;;;;;;;41.27;23.53;;;13.60;99.40;;;;;;4823331;29;20222;-78
2022/03/25 10:13:50;;;;;;;41.00;27.58;;;13.80;99.50;;;;;;4823896;29;20452;-77
2022/03/25 10:16:27;;;;;;;29.97;21.73;;;14.10;99.30;;;;;;4827276;29;20214;-77
2022/03/25 10:18:54;;;;;;;36.10;21.93;;;13.90;98.50;;;;;;4827380;29;20213;-79
2022/03/25 10:21:21;;;;;;;34.27;20.97;;;13.90;99.00;;;;;;4827062;29;20217;-79
2022/03/25 10:23:47;;;;;;;30.10;19.97;;;14.10;98.40;;;;;;4827129;29;20221;-81
2022/03/25 10:26:14;;;;;;;34.23;21.43;;;14.20;96.90;;;;;;4826555;29;20227;-78
2022/03/25 10:28:44;;;;;;;30.13;19.97;;;14.40;97.50;;;;;;4827053;29;20218;-79
2022/03/25 10:31:14;;;;;;;32.73;19.93;;;14.70;97.00;;;;;;4827087;29;20201;-79
2022/03/25 10:33:45;;;;;;;34.23;22.47;;;14.60;96.30;;;;;;4827245;29;20331;-78
2022/03/25 10:36:14;;;;;;;37.10;22.90;;;14.50;96.70;;;;;;4827031;29;20210;-82
2022/03/25 10:38:49;;;;;;;38.53;20.97;;;14.60;96.60;;;;;;4827440;29;20217;-80
2022/03/25 10:41:18;;;;;;;34.97;19.67;;;14.60;95.60;;;;;;4826950;29;20220;-81
2022/03/25 10:43:59;;;;;;;37.07;19.93;;;14.50;94.70;;;;;;4827224;29;20565;-79
2022/03/25 10:46:35;;;;;;;35.40;19.97;;;14.50;95.60;;;;;;4826562;29;20264;-79
2022/03/25 10:49:05;;;;;;;33.10;19.73;;;14.70;95.90;;;;;;4826913;29;20220;-78
2022/03/25 10:51:32;;;;;;;32.43;17.50;;;15.00;94.80;;;;;;4830409;29;20254;-81
2022/03/25 10:54:00;;;;;;;29.80;17.33;;;15.20;93.80;;;;;;4843844;29;20274;-81
2022/03/25 10:56:27;;;;;;;26.97;16.40;;;15.30;94.60;;;;;;4844006;29;20218;-79
2022/03/25 10:58:55;;;;;;;27.60;15.70;;;15.20;93.10;;;;;;4842900;29;20214;-78
2022/03/25 11:01:23;;;;;;;26.10;16.50;;;15.00;92.60;;;;;;4842038;29;20464;-78
2022/03/25 11:03:52;;;;;;;23.23;14.07;;;15.30;91.90;;;;;;4844771;29;20222;-80
2022/03/25 11:06:20;;;;;;;21.77;12.23;;;15.40;91.20;;;;;;4828933;29;20207;-80
2022/03/25 11:08:47;;;;;;;21.60;11.80;;;15.50;89.70;;;;;;4827091;29;20221;-77
2022/03/25 11:11:16;;;;;;;20.87;11.83;;;15.60;88.70;;;;;;4827705;29;20201;-80
2022/03/25 11:13:44;;;;;;;19.20;12.43;;;15.30;86.80;;;;;;4827094;29;20250;-80
2022/03/25 11:16:14;;;;;;;21.50;13.83;;;15.30;87.10;;;;;;4826351;29;20214;-79
2022/03/25 11:18:43;;;;;;;25.37;14.23;;;15.10;88.30;;;;;;4826234;29;20663;-78
2022/03/25 11:21:13;;;;;;;24.80;12.57;;;15.30;89.70;;;;;;4826173;29;20202;-78
2022/03/25 11:23:45;;;;;;;22.80;12.75;;;15.30;86.30;;;;;;4825968;29;20920;-79
2022/03/25 11:26:13;;;;;;;21.83;13.80;;;15.40;87.10;;;;;;4826040;29;20221;-79
2022/03/25 11:28:42;;;;;;;21.13;12.37;;;15.50;87.50;;;;;;4826321;29;20675;-78
2022/03/25 11:31:09;;;;;;;25.77;14.87;;;15.40;86.90;;;;;;4825933;29;20671;-78
2022/03/25 11:34:04;;;;;;;26.73;15.60;;;15.50;88.10;;;;;;4825872;29;20591;-80
2022/03/25 11:36:32;;;;;;;23.53;15.27;;;15.70;89.50;;;;;;4826229;29;20217;-78
2022/03/25 11:39:17;;;;;;;25.27;15.93;;;15.70;88.30;;;;;;4826079;29;20203;-81
2022/03/25 11:41:44;;;;;;;26.73;15.63;;;15.60;89.70;;;;;;4826323;29;20613;-78
2022/03/25 11:44:18;;;;;;;25.03;14.53;;;15.70;88.80;;;;;;4826126;29;20226;-81
2022/03/25 11:47:14;;;;;;;22.93;14.67;;;15.80;87.70;;;;;;4826053;29;20681;-80
2022/03/25 11:49:41;;;;;;;27.98;18.33;;;15.80;87.20;;;;;;4825015;29;20456;-80
2022/03/25 11:52:31;;;;;;;23.40;15.20;;;16.10;88.00;;;;;;4826826;29;20241;-79
2022/03/25 11:54:59;;;;;;;24.80;14.77;;;16.00;86.40;;;;;;4826517;29;20246;-80
2022/03/25 11:57:28;;;;;;;20.93;14.43;;;16.00;86.70;;;;;;4827165;29;20215;-80
2022/03/25 11:59:56;;;;;;;25.50;13.97;;;15.90;86.20;;;;;;4828066;29;20690;-79
2022/03/25 12:02:30;;;;;;;24.83;15.60;;;16.00;88.60;;;;;;4826666;29;20213;-79
2022/03/25 12:04:58;;;;;;;24.60;15.17;;;16.00;86.80;;;;;;4825749;29;20786;-79
2022/03/25 12:07:25;;;;;;;26.83;14.33;;;15.90;86.60;;;;;;4825440;29;20267;-77
2022/03/25 12:09:53;;;;;;;25.17;16.40;;;15.90;86.60;;;;;;4825546;29;20219;-78
2022/03/25 12:12:40;;;;;;;27.77;19.37;;;16.00;87.10;;;;;;4824628;29;20960;-85
2022/03/25 12:15:10;;;;;;;25.10;17.90;;;16.20;88.10;;;;;;4825305;29;20221;-80
2022/03/25 12:17:37;;;;;;;29.03;18.57;;;16.30;88.00;;;;;;4825385;29;20218;-79
2022/03/25 12:20:05;;;;;;;28.23;16.37;;;16.30;86.80;;;;;;4825653;29;20225;-81
2022/03/25 12:22:37;;;;;;;25.70;14.70;;;16.40;87.10;;;;;;4825196;29;20216;-78
2022/03/25 12:25:18;;;;;;;25.13;14.83;;;16.40;86.20;;;;;;4825913;29;20252;-81
2022/03/25 12:27:45;;;;;;;25.60;15.83;;;16.50;85.20;;;;;;4825288;29;20287;-82
2022/03/25 12:30:14;;;;;;;25.67;17.37;;;16.50;85.20;;;;;;4824864;29;20646;-75
2022/03/25 12:32:41;;;;;;;26.90;18.33;;;16.50;86.10;;;;;;4825211;29;20675;-80
2022/03/25 12:35:09;;;;;;;31.37;18.33;;;16.40;86.00;;;;;;4825655;29;20200;-84
2022/03/25 12:37:59;;;;;;;28.43;16.73;;;16.30;85.50;;;;;;4825208;29;20203;-80
2022/03/25 12:40:29;;;;;;;31.97;17.50;;;16.30;86.40;;;;;;4825178;29;20203;-82
2022/03/25 12:42:58;;;;;;;28.87;16.70;;;16.50;87.20;;;;;;4826036;29;20217;-81
2022/03/25 12:45:29;;;;;;;26.67;15.23;;;16.60;85.60;;;;;;4825093;29;20244;-79